createdAt,value
2024-02-19T00:01:14.256Z,3.90
2024-02-19T00:03:41.444Z,3.80
2024-02-19T00:06:08.680Z,4.13
2024-02-19T00:08:35.657Z,3.53
2024-02-19T00:11:02.921Z,5.80
2024-02-19T00:13:30.001Z,3.83
2024-02-19T00:15:57.148Z,4.43
2024-02-19T00:18:24.356Z,4.20
2024-02-19T00:20:51.405Z,5.30
2024-02-19T00:23:18.727Z,3.80
2024-02-19T00:25:45.890Z,4.53
2024-02-19T00:28:13.593Z,4.30
2024-02-19T00:30:40.802Z,4.10
2024-02-19T00:33:08.124Z,4.77
2024-02-19T00:35:35.286Z,4.50
2024-02-19T00:38:02.495Z,4.43
2024-02-19T00:40:29.581Z,4.60
2024-02-19T00:42:56.665Z,4.30
2024-02-19T00:45:23.749Z,4.30
2024-02-19T00:47:50.732Z,4.93
2024-02-19T00:50:17.816Z,3.97
2024-02-19T00:52:44.862Z,4.03
2024-02-19T00:55:11.939Z,4.33
2024-02-19T00:57:39.110Z,4.30
2024-02-19T01:00:09.465Z,4.63
2024-02-19T01:02:37.058Z,7.70
2024-02-19T01:05:05.030Z,4.07
2024-02-19T01:07:32.300Z,4.57
2024-02-19T01:09:59.474Z,4.90
2024-02-19T01:12:26.630Z,6.17
2024-02-19T01:14:53.700Z,4.50
2024-02-19T01:17:21.721Z,4.67
2024-02-19T01:19:48.972Z,3.50
2024-02-19T01:22:16.609Z,3.47
2024-02-19T01:24:43.722Z,3.50
2024-02-19T01:27:11.575Z,4.13
2024-02-19T01:29:38.683Z,3.93
2024-02-19T01:32:05.983Z,4.17
2024-02-19T01:34:33.280Z,4.20
2024-02-19T01:37:00.518Z,4.50
2024-02-19T01:39:27.801Z,4.00
2024-02-19T01:41:55.043Z,4.53
2024-02-19T01:44:22.282Z,4.47
2024-02-19T01:46:50.330Z,3.63
2024-02-19T01:49:17.617Z,3.50
2024-02-19T01:51:45.492Z,3.20
2024-02-19T01:54:13.905Z,3.53
2024-02-19T01:56:42.229Z,3.70
2024-02-19T01:59:11.784Z,3.77
2024-02-19T02:01:40.300Z,4.47
2024-02-19T02:04:07.698Z,4.10
2024-02-19T02:06:35.728Z,3.87
2024-02-19T02:09:03.231Z,4.43
2024-02-19T02:11:30.485Z,4.30
2024-02-19T02:13:57.554Z,4.07
2024-02-19T02:16:27.859Z,4.20
2024-02-19T02:18:55.644Z,4.83
2024-02-19T02:21:23.560Z,3.10
2024-02-19T02:23:50.527Z,3.60
2024-02-19T02:26:17.673Z,3.77
2024-02-19T02:28:44.701Z,3.43
2024-02-19T02:31:11.882Z,4.13
2024-02-19T02:33:39.130Z,3.87
2024-02-19T02:36:07.138Z,4.67
2024-02-19T02:38:34.134Z,4.63
2024-02-19T02:41:01.169Z,4.30
2024-02-19T02:43:28.648Z,4.00
2024-02-19T02:45:55.766Z,3.40
2024-02-19T02:48:24.020Z,2.93
2024-02-19T02:50:51.156Z,3.10
2024-02-19T02:53:18.616Z,3.57
2024-02-19T02:55:45.788Z,3.97
2024-02-19T02:58:13.049Z,3.70
2024-02-19T03:00:40.242Z,3.87
2024-02-19T03:03:07.306Z,4.13
2024-02-19T03:05:34.533Z,3.47
2024-02-19T03:08:01.903Z,3.63
2024-02-19T03:10:28.975Z,3.60
2024-02-19T03:12:55.971Z,2.97
2024-02-19T03:15:23.127Z,3.63
2024-02-19T03:17:50.127Z,3.20
2024-02-19T03:20:20.118Z,3.00
2024-02-19T03:22:47.296Z,2.97
2024-02-19T03:25:14.490Z,2.93
2024-02-19T03:27:42.066Z,3.07
2024-02-19T03:30:10.813Z,3.50
2024-02-19T03:32:39.429Z,3.70
2024-02-19T03:35:06.725Z,2.80
2024-02-19T03:37:33.810Z,3.80
2024-02-19T03:40:00.958Z,3.30
2024-02-19T03:42:28.034Z,3.60
2024-02-19T03:44:55.113Z,3.27
2024-02-19T03:47:23.029Z,4.43
2024-02-19T03:49:50.090Z,4.30
2024-02-19T03:52:18.371Z,3.40
2024-02-19T03:54:45.542Z,3.20
2024-02-19T03:57:12.658Z,3.77
2024-02-19T03:59:39.769Z,3.50
2024-02-19T04:02:06.844Z,3.47
2024-02-19T04:04:34.080Z,2.87
2024-02-19T04:07:01.269Z,3.33
2024-02-19T04:09:28.371Z,3.20
2024-02-19T04:11:55.480Z,4.00
2024-02-19T04:14:22.497Z,3.30
2024-02-19T04:16:49.531Z,3.83
2024-02-19T04:19:18.477Z,3.03
2024-02-19T04:21:46.599Z,2.93
2024-02-19T04:24:14.269Z,3.93
2024-02-19T04:26:41.429Z,4.03
2024-02-19T04:29:09.497Z,5.00
2024-02-19T04:31:37.018Z,3.47
2024-02-19T04:34:04.646Z,3.80
2024-02-19T04:36:32.779Z,4.30
2024-02-19T04:39:00.105Z,3.17
2024-02-19T04:41:27.266Z,3.60
2024-02-19T04:43:54.321Z,3.20
2024-02-19T04:46:21.488Z,5.90
2024-02-19T04:48:48.844Z,3.70
2024-02-19T04:51:15.946Z,4.40
2024-02-19T04:53:44.002Z,4.20
2024-02-19T04:56:16.019Z,4.00
2024-02-19T04:58:43.105Z,3.73
2024-02-19T05:01:10.387Z,3.70
2024-02-19T05:03:37.624Z,4.33
2024-02-19T05:06:05.039Z,4.30
2024-02-19T05:08:32.099Z,4.00
2024-02-19T05:10:59.201Z,4.07
2024-02-19T05:13:26.294Z,3.20
2024-02-19T05:15:53.514Z,5.13
2024-02-19T05:18:20.746Z,3.63
2024-02-19T05:20:48.218Z,3.83
2024-02-19T05:23:15.363Z,3.57
2024-02-19T05:25:42.375Z,3.90
2024-02-19T05:28:09.469Z,4.03
2024-02-19T05:30:37.646Z,3.40
2024-02-19T05:33:05.796Z,5.60
2024-02-19T05:35:33.026Z,4.30
2024-02-19T05:38:00.336Z,4.13
2024-02-19T05:40:27.494Z,3.90
2024-02-19T05:42:54.775Z,3.73
2024-02-19T05:45:21.987Z,4.40
2024-02-19T05:47:49.587Z,3.47
2024-02-19T05:50:17.125Z,4.10
2024-02-19T05:52:44.120Z,4.80
2024-02-19T05:55:11.307Z,3.80
2024-02-19T05:57:39.249Z,5.70
2024-02-19T06:00:08.207Z,5.90
2024-02-19T06:02:35.390Z,4.50
2024-02-19T06:05:05.145Z,4.90
2024-02-19T06:07:33.572Z,5.13
2024-02-19T06:10:00.673Z,4.67
2024-02-19T06:12:27.742Z,4.60
2024-02-19T06:14:54.796Z,3.80
2024-02-19T06:17:21.905Z,5.00
2024-02-19T06:19:48.980Z,4.63
2024-02-19T06:22:16.245Z,4.90
2024-02-19T06:24:44.405Z,6.27
2024-02-19T06:27:11.497Z,13.33
2024-02-19T06:29:38.472Z,6.50
2024-02-19T06:32:06.005Z,12.53
2024-02-19T06:34:36.064Z,6.27
2024-02-19T06:37:03.495Z,5.63
2024-02-19T06:39:30.906Z,7.20
2024-02-19T06:41:58.671Z,5.67
2024-02-19T06:44:25.711Z,4.00
2024-02-19T06:46:52.806Z,4.50
2024-02-19T06:49:23.412Z,4.30
2024-02-19T06:51:51.082Z,4.77
2024-02-19T06:54:18.075Z,4.17
2024-02-19T06:56:45.250Z,4.00
2024-02-19T06:59:12.280Z,3.87
2024-02-19T07:01:40.477Z,4.27
2024-02-19T07:04:07.775Z,4.03
2024-02-19T07:06:34.814Z,4.57
2024-02-19T07:09:01.918Z,4.93
2024-02-19T07:11:29.050Z,8.40
2024-02-19T07:13:56.889Z,4.40
2024-02-19T07:16:24.318Z,3.70
2024-02-19T07:18:51.750Z,4.33
2024-02-19T07:21:19.170Z,5.10
2024-02-19T07:23:46.268Z,4.90
2024-02-19T07:26:13.626Z,4.10
2024-02-19T07:28:40.723Z,9.00
2024-02-19T07:31:07.799Z,6.30
2024-02-19T07:33:35.939Z,5.30
2024-02-19T07:36:03.331Z,5.87
2024-02-19T07:38:30.332Z,4.17
2024-02-19T07:40:57.347Z,5.30
2024-02-19T07:43:24.520Z,4.23
2024-02-19T07:45:51.806Z,7.70
2024-02-19T07:48:19.244Z,17.70
2024-02-19T07:50:46.413Z,10.63
2024-02-19T07:53:16.320Z,6.37
2024-02-19T07:55:45.107Z,7.50
2024-02-19T07:58:12.157Z,5.70
2024-02-19T08:00:39.255Z,5.57
2024-02-19T08:03:06.332Z,5.53
2024-02-19T08:05:33.521Z,6.63
2024-02-19T08:08:00.649Z,6.90
2024-02-19T08:10:27.748Z,3.90
2024-02-19T08:12:54.929Z,3.87
2024-02-19T08:15:22.188Z,4.07
2024-02-19T08:17:49.245Z,3.20
2024-02-19T08:20:16.461Z,3.60
2024-02-19T08:22:45.957Z,3.90
2024-02-19T08:25:14.142Z,3.27
2024-02-19T08:27:41.270Z,3.27
2024-02-19T08:30:08.669Z,4.50
2024-02-19T08:32:35.740Z,12.50
2024-02-19T08:35:03.225Z,15.80
2024-02-19T08:37:30.750Z,11.20
2024-02-19T08:39:58.059Z,10.03
2024-02-19T08:42:25.390Z,5.60
2024-02-19T08:44:52.445Z,7.53
2024-02-19T08:47:19.690Z,7.87
2024-02-19T08:49:47.019Z,13.37
2024-02-19T08:52:15.492Z,11.47
2024-02-19T08:54:42.706Z,10.43
2024-02-19T08:57:09.826Z,7.33
2024-02-19T08:59:36.928Z,8.00
2024-02-19T09:02:04.813Z,7.20
2024-02-19T09:04:32.291Z,9.10
2024-02-19T09:06:59.571Z,7.17
2024-02-19T09:09:26.702Z,12.50
2024-02-19T09:11:53.760Z,7.37
2024-02-19T09:14:21.008Z,12.20
2024-02-19T09:16:48.285Z,7.97
2024-02-19T09:19:16.892Z,4.77
2024-02-19T09:21:45.778Z,6.50
2024-02-19T09:24:13.318Z,6.80
2024-02-19T09:26:40.359Z,6.83
2024-02-19T09:29:07.478Z,6.20
2024-02-19T09:31:34.615Z,5.83
2024-02-19T09:34:02.204Z,7.53
2024-02-19T09:36:29.343Z,5.00
2024-02-19T09:38:56.364Z,6.03
2024-02-19T09:41:23.507Z,5.27
2024-02-19T09:43:52.550Z,6.60
2024-02-19T09:46:23.683Z,7.03
2024-02-19T09:48:51.918Z,7.60
2024-02-19T09:51:29.576Z,7.57
2024-02-19T09:54:04.873Z,6.93
2024-02-19T09:56:34.505Z,7.17
2024-02-19T09:59:01.950Z,6.73
2024-02-19T10:01:29.064Z,5.67
2024-02-19T10:03:57.616Z,6.80
2024-02-19T10:06:35.503Z,7.20
2024-02-19T10:09:08.425Z,5.93
2024-02-19T10:11:36.742Z,5.17
2024-02-19T10:14:07.270Z,9.20
2024-02-19T10:16:34.625Z,7.43
2024-02-19T10:19:09.420Z,6.20
2024-02-19T10:21:37.205Z,9.70
2024-02-19T10:24:04.587Z,13.80
2024-02-19T10:26:31.619Z,6.10
2024-02-19T10:28:58.808Z,4.10
2024-02-19T10:31:27.226Z,3.17
2024-02-19T10:33:54.658Z,7.10
2024-02-19T10:36:23.857Z,6.17
2024-02-19T10:38:51.366Z,9.10
2024-02-19T10:41:22.175Z,6.67
2024-02-19T10:43:50.437Z,5.73
2024-02-19T10:46:21.744Z,8.40
2024-02-19T10:48:57.009Z,6.10
2024-02-19T10:51:25.830Z,7.23
2024-02-19T10:54:05.709Z,8.33
2024-02-19T10:56:41.118Z,6.57
2024-02-19T10:59:10.277Z,11.87
2024-02-19T11:01:42.608Z,7.33
2024-02-19T11:04:16.386Z,19.93
2024-02-19T11:06:55.631Z,7.90
2024-02-19T11:09:29.171Z,6.87
2024-02-19T11:11:59.058Z,4.63
2024-02-19T11:14:35.850Z,4.30
2024-02-19T11:17:03.985Z,9.13
2024-02-19T11:19:41.421Z,4.00
2024-02-19T11:22:14.950Z,4.30
2024-02-19T11:24:42.645Z,4.00
2024-02-19T11:27:09.951Z,6.47
2024-02-19T11:29:44.000Z,7.47
2024-02-19T11:32:21.166Z,8.70
2024-02-19T11:34:51.169Z,4.93
2024-02-19T11:37:19.157Z,6.30
2024-02-19T11:39:46.559Z,3.23
2024-02-19T11:42:18.056Z,11.20
2024-02-19T11:44:46.778Z,5.37
2024-02-19T11:47:15.829Z,6.90
2024-02-19T11:49:43.958Z,8.00
2024-02-19T11:52:13.005Z,5.30
2024-02-19T11:54:41.029Z,0.93
2024-02-19T11:57:10.891Z,1.30
2024-02-19T11:59:38.047Z,2.60
2024-02-19T12:02:10.431Z,0.70
2024-02-19T12:04:41.444Z,0.67
2024-02-19T12:07:11.214Z,0.40
2024-02-19T12:09:39.118Z,0.40
2024-02-19T12:12:06.750Z,0.40
2024-02-19T12:14:33.963Z,0.40
2024-02-19T12:17:04.707Z,0.40
2024-02-19T12:19:32.299Z,0.40
2024-02-19T12:21:59.470Z,0.90
2024-02-19T12:24:27.828Z,0.40
2024-02-19T12:26:54.950Z,0.40
2024-02-19T12:29:22.039Z,0.40
2024-02-19T12:31:49.099Z,0.40
2024-02-19T12:34:16.384Z,0.40
2024-02-19T12:36:43.658Z,0.40
2024-02-19T12:39:12.106Z,0.47
2024-02-19T12:41:39.586Z,0.40
2024-02-19T12:44:06.993Z,0.40
2024-02-19T12:46:34.390Z,0.60
2024-02-19T12:49:02.568Z,0.40
2024-02-19T12:51:34.900Z,0.50
2024-02-19T12:54:02.345Z,0.80
2024-02-19T12:56:29.360Z,0.50
2024-02-19T12:58:56.441Z,0.60
2024-02-19T13:01:28.343Z,0.90
2024-02-19T13:04:00.627Z,0.50
2024-02-19T13:06:28.170Z,0.50
2024-02-19T13:08:55.676Z,0.47
2024-02-19T13:11:22.986Z,1.50
2024-02-19T13:13:50.100Z,0.60
2024-02-19T13:16:17.401Z,0.50
2024-02-19T13:18:44.697Z,0.60
2024-02-19T13:21:11.873Z,0.50
2024-02-19T13:23:38.948Z,0.50
2024-02-19T13:26:06.510Z,0.50
2024-02-19T13:28:33.569Z,0.90
2024-02-19T13:31:01.060Z,0.50
2024-02-19T13:33:28.151Z,0.60
2024-02-19T13:35:55.394Z,0.80
2024-02-19T13:38:23.135Z,0.40
2024-02-19T13:40:50.939Z,1.80
2024-02-19T13:43:19.131Z,0.43
2024-02-19T13:46:02.694Z,0.43
2024-02-19T13:48:30.941Z,0.50
2024-02-19T13:50:59.343Z,0.60
2024-02-19T13:53:28.302Z,1.33
2024-02-19T13:55:56.424Z,0.40
2024-02-19T13:58:24.316Z,0.50
2024-02-19T14:00:52.992Z,0.50
2024-02-19T14:03:21.707Z,2.97
2024-02-19T14:05:49.579Z,3.17
2024-02-19T14:08:18.266Z,0.50
2024-02-19T14:10:46.577Z,0.50
2024-02-19T14:13:16.383Z,0.50
2024-02-19T14:15:43.651Z,2.17
2024-02-19T14:18:10.712Z,0.47
2024-02-19T14:20:37.823Z,0.50
2024-02-19T14:23:07.244Z,0.50
2024-02-19T14:25:39.505Z,1.40
2024-02-19T14:28:10.536Z,3.20
2024-02-19T14:30:39.538Z,0.40
2024-02-19T14:33:06.649Z,0.40
2024-02-19T14:35:34.371Z,0.50
2024-02-19T14:38:03.592Z,0.50
2024-02-19T14:40:30.872Z,5.83
2024-02-19T14:42:58.031Z,1.03
2024-02-19T14:45:25.430Z,0.53
2024-02-19T14:47:52.522Z,0.90
2024-02-19T14:50:20.017Z,0.40
2024-02-19T14:52:47.270Z,0.50
2024-02-19T14:55:17.011Z,0.40
2024-02-19T14:57:47.676Z,0.40
2024-02-19T15:00:22.695Z,0.50
2024-02-19T15:02:51.102Z,0.40
2024-02-19T15:05:20.200Z,0.40
2024-02-19T15:07:54.923Z,0.50
2024-02-19T15:10:26.271Z,0.90
2024-02-19T15:12:54.822Z,0.40
2024-02-19T15:15:22.642Z,0.50
2024-02-19T15:17:50.235Z,0.50
2024-02-19T15:20:18.793Z,0.50
2024-02-19T15:22:47.856Z,0.50
2024-02-19T15:25:15.418Z,0.67
2024-02-19T15:27:42.791Z,0.50
2024-02-19T15:30:10.319Z,0.90
2024-02-19T15:32:37.410Z,0.60
2024-02-19T15:35:05.982Z,1.67
2024-02-19T15:37:34.617Z,0.50
2024-02-19T15:40:02.224Z,0.70
2024-02-19T15:42:29.422Z,0.50
2024-02-19T15:44:58.501Z,0.50
2024-02-19T15:47:26.923Z,0.50
2024-02-19T15:49:58.276Z,0.40
2024-02-19T15:52:26.364Z,0.50
2024-02-19T15:54:53.910Z,0.70
2024-02-19T15:57:22.496Z,0.43
2024-02-19T15:59:50.244Z,0.47
2024-02-19T16:02:17.426Z,0.93
2024-02-19T16:04:45.117Z,0.70
2024-02-19T16:07:12.595Z,0.47
2024-02-19T16:09:39.965Z,0.90
2024-02-19T16:12:07.682Z,0.50
2024-02-19T16:14:40.621Z,0.40
2024-02-19T16:17:08.325Z,0.50
2024-02-19T16:19:35.466Z,0.50
2024-02-19T16:22:03.954Z,0.50
2024-02-19T16:24:35.205Z,0.47
2024-02-19T16:27:04.854Z,0.40
2024-02-19T16:29:32.192Z,0.50
2024-02-19T16:32:00.139Z,0.60
2024-02-19T16:34:27.763Z,0.50
2024-02-19T16:36:55.127Z,0.47
2024-02-19T16:39:22.314Z,0.60
2024-02-19T16:41:49.440Z,0.90
2024-02-19T16:44:17.122Z,0.60
2024-02-19T16:46:44.211Z,0.63
2024-02-19T16:49:11.321Z,0.90
2024-02-19T16:51:43.982Z,1.40
2024-02-19T16:54:11.174Z,0.80
2024-02-19T16:56:38.426Z,0.80
2024-02-19T16:59:06.079Z,0.50
2024-02-19T17:01:33.457Z,1.10
2024-02-19T17:04:01.958Z,1.00
2024-02-19T17:06:29.563Z,1.60
2024-02-19T17:08:56.740Z,3.90
2024-02-19T17:11:25.099Z,1.00
2024-02-19T17:13:52.398Z,0.97
2024-02-19T17:16:20.549Z,2.23
2024-02-19T17:18:47.763Z,0.80
2024-02-19T17:21:14.981Z,1.17
2024-02-19T17:23:44.148Z,0.70
2024-02-19T17:26:11.442Z,1.13
2024-02-19T17:28:38.474Z,1.97
2024-02-19T17:31:07.672Z,0.70
2024-02-19T17:33:34.858Z,0.70
2024-02-19T17:36:02.250Z,0.70
2024-02-19T17:38:30.422Z,0.60
2024-02-19T17:40:59.736Z,0.70
2024-02-19T17:43:26.842Z,0.50
2024-02-19T17:45:54.079Z,0.67
2024-02-19T17:48:22.559Z,1.53
2024-02-19T17:50:51.912Z,0.60
2024-02-19T17:53:18.972Z,0.77
2024-02-19T17:55:47.102Z,0.90
2024-02-19T17:58:14.438Z,0.80
2024-02-19T18:00:43.099Z,3.53
2024-02-19T18:03:10.547Z,3.80
2024-02-19T18:05:38.117Z,2.03
2024-02-19T18:08:05.513Z,1.43
2024-02-19T18:10:32.897Z,1.13
2024-02-19T18:13:00.833Z,2.37
2024-02-19T18:15:28.075Z,1.03
2024-02-19T18:17:57.382Z,1.47
2024-02-19T18:20:25.260Z,1.10
2024-02-19T18:22:53.340Z,1.40
2024-02-19T18:25:20.777Z,0.90
2024-02-19T18:27:47.905Z,1.17
2024-02-19T18:30:15.182Z,0.90
2024-02-19T18:32:42.892Z,0.80
2024-02-19T18:35:10.374Z,1.43
2024-02-19T18:37:37.849Z,1.10
2024-02-19T18:40:08.698Z,1.70
2024-02-19T18:42:36.642Z,1.10
2024-02-19T18:45:03.980Z,1.37
2024-02-19T18:47:31.248Z,3.97
2024-02-19T18:49:58.404Z,2.57
2024-02-19T18:52:25.629Z,1.33
2024-02-19T18:54:53.329Z,6.83
2024-02-19T18:57:20.582Z,5.80
2024-02-19T18:59:47.636Z,5.50
2024-02-19T19:02:14.884Z,2.23
2024-02-19T19:04:45.246Z,0.90
2024-02-19T19:07:13.342Z,1.07
2024-02-19T19:09:41.335Z,1.80
2024-02-19T19:12:12.419Z,1.47
2024-02-19T19:14:40.388Z,1.40
2024-02-19T19:17:10.164Z,1.30
2024-02-19T19:19:39.794Z,1.00
2024-02-19T19:22:07.233Z,0.83
2024-02-19T19:24:35.154Z,1.10
2024-02-19T19:27:07.849Z,1.80
2024-02-19T19:29:35.215Z,1.30
2024-02-19T19:32:02.453Z,3.90
2024-02-19T19:34:29.803Z,1.53
2024-02-19T19:36:57.041Z,1.10
2024-02-19T19:39:24.624Z,1.17
2024-02-19T19:41:51.680Z,1.23
2024-02-19T19:44:19.053Z,0.80
2024-02-19T19:46:46.344Z,2.00
2024-02-19T19:49:20.839Z,7.10
2024-02-19T19:51:48.160Z,1.33
2024-02-19T19:54:15.370Z,1.17
2024-02-19T19:56:42.416Z,1.10
2024-02-19T19:59:10.238Z,0.73
2024-02-19T20:01:37.894Z,0.97
2024-02-19T20:04:06.697Z,0.90
2024-02-19T20:06:36.756Z,1.60
2024-02-19T20:09:04.291Z,1.73
2024-02-19T20:11:31.543Z,2.43
2024-02-19T20:13:58.757Z,2.80
2024-02-19T20:16:25.772Z,4.77
2024-02-19T20:18:52.950Z,3.00
2024-02-19T20:21:23.157Z,2.47
2024-02-19T20:23:50.295Z,2.67
2024-02-19T20:26:20.224Z,1.90
2024-02-19T20:28:47.501Z,3.57
2024-02-19T20:31:14.548Z,1.93
2024-02-19T20:33:41.908Z,2.47
2024-02-19T20:36:09.178Z,1.90
2024-02-19T20:38:36.292Z,1.60
2024-02-19T20:41:04.090Z,1.50
2024-02-19T20:43:31.131Z,1.70
2024-02-19T20:45:58.227Z,3.07
2024-02-19T20:48:25.502Z,2.70
2024-02-19T20:50:52.800Z,1.00
2024-02-19T20:53:19.804Z,2.63
2024-02-19T20:55:46.906Z,1.63
2024-02-19T20:58:16.016Z,0.80
2024-02-19T21:00:43.128Z,0.97
2024-02-19T21:03:10.220Z,0.60
2024-02-19T21:05:37.437Z,1.00
2024-02-19T21:08:06.466Z,8.20
2024-02-19T21:10:34.669Z,0.57
2024-02-19T21:13:02.558Z,0.77
2024-02-19T21:15:29.891Z,0.93
2024-02-19T21:17:57.107Z,1.00
2024-02-19T21:20:24.391Z,0.77
2024-02-19T21:22:52.536Z,0.80
2024-02-19T21:25:19.968Z,0.90
2024-02-19T21:27:47.099Z,0.53
2024-02-19T21:30:14.537Z,0.67
2024-02-19T21:32:41.765Z,0.80
2024-02-19T21:35:11.797Z,0.90
2024-02-19T21:37:40.624Z,1.93
2024-02-19T21:40:10.557Z,0.60
2024-02-19T21:42:39.426Z,2.10
2024-02-19T21:45:09.895Z,0.70
2024-02-19T21:47:38.087Z,1.13
2024-02-19T21:50:10.110Z,0.90
2024-02-19T21:52:38.414Z,2.00
2024-02-19T21:55:07.737Z,1.60
2024-02-19T21:57:39.236Z,2.10
2024-02-19T22:00:09.189Z,1.20
2024-02-19T22:02:37.308Z,0.70
2024-02-19T22:05:05.065Z,1.37
2024-02-19T22:07:33.700Z,1.00
2024-02-19T22:10:03.096Z,1.30
2024-02-19T22:12:30.949Z,2.40
2024-02-19T22:14:58.929Z,1.20
2024-02-19T22:17:29.680Z,1.73
2024-02-19T22:19:57.429Z,0.60
2024-02-19T22:22:25.174Z,0.50
2024-02-19T22:24:52.539Z,0.63
2024-02-19T22:27:20.528Z,0.90
2024-02-19T22:29:47.531Z,1.10
2024-02-19T22:32:14.591Z,0.70
2024-02-19T22:34:46.122Z,0.90
2024-02-19T22:37:14.738Z,1.00
2024-02-19T22:39:46.250Z,0.67
2024-02-19T22:42:13.724Z,0.80
2024-02-19T22:44:41.854Z,0.70
2024-02-19T22:47:08.920Z,0.80
2024-02-19T22:49:40.001Z,0.90
2024-02-19T22:52:08.340Z,0.70
2024-02-19T22:54:38.113Z,1.20
2024-02-19T22:57:05.569Z,3.13
2024-02-19T22:59:32.615Z,0.60
2024-02-19T23:02:00.807Z,0.60
2024-02-19T23:04:28.108Z,0.70
2024-02-19T23:06:55.534Z,0.70
2024-02-19T23:09:22.750Z,0.60
2024-02-19T23:11:49.996Z,1.47
2024-02-19T23:14:18.604Z,0.60
2024-02-19T23:16:45.999Z,0.80
2024-02-19T23:19:13.342Z,0.80
2024-02-19T23:21:40.629Z,1.07
2024-02-19T23:24:08.287Z,0.60
2024-02-19T23:26:35.482Z,0.70
2024-02-19T23:29:02.592Z,1.17
2024-02-19T23:31:30.753Z,0.50
2024-02-19T23:33:58.080Z,0.60
2024-02-19T23:36:25.363Z,0.67
2024-02-19T23:38:52.449Z,0.70
2024-02-19T23:41:19.724Z,0.87
2024-02-19T23:43:49.480Z,1.53
2024-02-19T23:46:17.077Z,0.60
2024-02-19T23:48:44.390Z,0.80
2024-02-19T23:51:11.494Z,0.80
2024-02-19T23:53:38.631Z,1.03
2024-02-19T23:56:06.215Z,0.70
2024-02-19T23:58:33.446Z,0.60
